Terminal Aerodrome Forecast
Issued by NWS

Home | Current Version | Previous Version | Text Only | Print | Product List | Glossary On
Versions: 1 2 3 4 5 6 7 8 9 10 11 12 13 14 15
000
FTUS43 KJKL 262339
TAFSME
TAF
KSME 262339Z 2700/2724 21006KT P6SM VCSH BKN070
     FM271500 19005KT P6SM VCSH OVC070
     FM271800 21007KT P6SM VCTS OVC070CB
     FM272200 19007KT P6SM BKN070
     FM272300 19007KT P6SM -SHRA BKN110=

USA.gov is the U.S. government's official web portal to all federal, state and local government web resources and services.